Time;durP1;ratioP1;P1;durP2;ratioP2;P2;SDS_P1;SDS_P2;PMS_P1;PMS_P2;Temp;Humidity;BMP_temperature;BMP_pressure;BME280_temperature;BME280_humidity;BME280_pressure;Samples;Min_cycle;Max_cycle;Signal;HPM_P1;HPM_P2
2021/01/18 00:01:39;;;;;;;1999.90;999.90;;;4.90;99.90;;;;;;5203407;22;20248;-79
2021/01/18 00:04:05;;;;;;;1999.90;999.90;;;4.90;99.90;;;;;;5136373;28;20241;-80
2021/01/18 00:06:33;;;;;;;1999.90;999.90;;;5.00;99.90;;;;;;5136049;28;20182;-81
2021/01/18 00:08:59;;;;;;;1999.90;999.90;;;5.00;99.90;;;;;;5117969;28;20432;-81
2021/01/18 00:11:24;;;;;;;1999.90;999.90;;;5.00;99.90;;;;;;5135967;28;20219;-80
2021/01/18 00:13:51;;;;;;;1999.90;999.90;;;5.00;99.90;;;;;;5136181;28;20847;-80
2021/01/18 00:16:22;;;;;;;1999.90;999.90;;;5.00;99.90;;;;;;5136470;28;20165;-81
2021/01/18 00:18:50;;;;;;;1999.90;999.90;;;5.00;99.90;;;;;;5136121;28;20193;-81
2021/01/18 00:21:16;;;;;;;1999.90;999.90;;;5.00;99.90;;;;;;5136113;28;20170;-81
2021/01/18 00:23:42;;;;;;;1999.90;999.90;;;4.90;99.90;;;;;;5135884;28;20237;-80
2021/01/18 00:26:12;;;;;;;1999.90;999.90;;;5.00;99.90;;;;;;5136622;28;20674;-81
2021/01/18 00:28:38;;;;;;;1999.90;999.90;;;5.00;99.90;;;;;;5117762;28;20158;-81
2021/01/18 00:31:05;;;;;;;1999.90;999.90;;;5.00;99.90;;;;;;5136411;28;20181;-81
2021/01/18 00:33:34;;;;;;;1999.90;999.90;;;5.00;99.90;;;;;;5117372;28;20287;-80
2021/01/18 00:36:01;;;;;;;1999.90;999.90;;;5.00;99.90;;;;;;5136284;28;20173;-81
2021/01/18 00:38:27;;;;;;;1999.90;999.90;;;5.00;99.90;;;;;;5135942;28;20295;-81
2021/01/18 00:40:52;;;;;;;1999.90;999.90;;;4.90;99.90;;;;;;5135811;28;20181;-81
2021/01/18 00:43:18;;;;;;;1999.90;999.90;;;5.00;99.90;;;;;;5136284;28;20170;-81
2021/01/18 00:45:44;;;;;;;1999.90;999.90;;;5.00;99.90;;;;;;5136221;28;20432;-81
2021/01/18 00:48:10;;;;;;;1999.90;999.90;;;5.00;99.90;;;;;;5135739;28;20211;-81
2021/01/18 00:50:36;;;;;;;1999.90;999.90;;;5.00;99.90;;;;;;5136060;28;20166;-81
2021/01/18 00:53:04;;;;;;;1999.90;999.90;;;5.00;99.90;;;;;;5135634;28;20182;-81
2021/01/18 00:55:30;;;;;;;1999.90;999.90;;;5.00;99.90;;;;;;5117530;28;20170;-81
2021/01/18 00:57:55;;;;;;;1999.90;999.90;;;5.00;99.90;;;;;;5135522;28;20179;-81
2021/01/18 01:00:24;;;;;;;1999.90;999.90;;;4.90;99.90;;;;;;5117688;28;20174;-81
2021/01/18 01:02:51;;;;;;;1999.90;999.90;;;5.00;99.90;;;;;;5117622;28;20187;-81
2021/01/18 01:05:19;;;;;;;1999.90;999.90;;;5.00;99.90;;;;;;5124062;28;20166;-81
2021/01/18 01:07:48;;;;;;;1999.90;999.90;;;5.10;99.90;;;;;;5121913;28;20166;-81
2021/01/18 01:10:19;;;;;;;1999.90;999.90;;;5.00;99.90;;;;;;5122026;28;20192;-81
2021/01/18 01:12:45;;;;;;;1999.90;999.90;;;5.00;99.90;;;;;;5122135;28;20185;-81
2021/01/18 01:15:12;;;;;;;1999.90;999.90;;;5.00;99.90;;;;;;5121867;28;20163;-80
2021/01/18 01:17:47;;;;;;;1999.90;999.90;;;5.00;99.90;;;;;;5122197;28;20159;-81
2021/01/18 01:20:15;;;;;;;1999.90;999.90;;;5.00;99.90;;;;;;5122578;28;20498;-82
2021/01/18 01:22:41;;;;;;;1999.90;999.90;;;5.00;99.90;;;;;;5103760;28;20163;-82
2021/01/18 01:25:11;;;;;;;1999.90;999.90;;;5.00;99.90;;;;;;5121723;28;20189;-82
2021/01/18 01:27:40;;;;;;;1999.90;999.90;;;5.00;99.90;;;;;;5121043;28;20743;-81
2021/01/18 01:30:08;;;;;;;1999.90;999.90;;;5.00;99.90;;;;;;5121547;28;20159;-81
2021/01/18 01:32:38;;;;;;;1999.90;999.90;;;5.00;99.90;;;;;;5120734;28;20246;-81
2021/01/18 01:35:05;;;;;;;1999.90;999.90;;;5.00;99.90;;;;;;5102764;28;20162;-81
2021/01/18 01:37:30;;;;;;;1999.90;999.90;;;5.00;99.90;;;;;;5120532;28;20166;-82
2021/01/18 01:39:56;;;;;;;1999.90;999.90;;;5.00;99.90;;;;;;5120938;28;20224;-81
2021/01/18 01:42:23;;;;;;;1999.90;999.90;;;5.00;99.90;;;;;;5120937;28;20194;-81
2021/01/18 01:44:49;;;;;;;1999.90;999.90;;;5.00;99.90;;;;;;5120887;28;20190;-81
2021/01/18 01:47:29;;;;;;;1999.90;999.90;;;4.90;99.90;;;;;;5120535;28;20575;-81
2021/01/18 01:49:55;;;;;;;1999.90;999.90;;;4.90;99.90;;;;;;5120922;28;20155;-81
2021/01/18 01:52:23;;;;;;;1999.90;999.90;;;4.90;99.90;;;;;;5120387;28;20182;-81
2021/01/18 01:55:00;;;;;;;1999.90;999.90;;;5.00;99.90;;;;;;5120278;28;20159;-81
2021/01/18 01:57:29;;;;;;;1999.90;999.90;;;4.90;99.90;;;;;;5120322;28;20151;-81
2021/01/18 01:59:59;;;;;;;1999.90;999.90;;;4.90;99.90;;;;;;5102489;28;20166;-81
2021/01/18 02:02:25;;;;;;;1999.90;999.90;;;4.90;99.90;;;;;;5119804;28;20203;-81
2021/01/18 02:04:50;;;;;;;1999.90;999.90;;;4.80;99.90;;;;;;5120220;28;20629;-81
2021/01/18 02:07:27;;;;;;;1999.90;999.90;;;4.80;99.90;;;;;;5120509;28;20443;-81
2021/01/18 02:09:54;;;;;;;1999.90;999.90;;;4.90;99.90;;;;;;5120073;28;20230;-81
2021/01/18 02:12:20;;;;;;;1999.90;999.90;;;4.90;99.90;;;;;;5102006;28;20186;-81
2021/01/18 02:15:23;;;;;;;1999.90;999.90;;;4.90;99.90;;;;;;5101438;28;20664;-81
2021/01/18 02:18:13;;;;;;;1999.90;999.90;;;4.80;99.90;;;;;;5106264;28;20464;-81
2021/01/18 02:21:07;;;;;;;1999.90;999.90;;;4.80;99.90;;;;;;5119827;28;20557;-81
2021/01/18 02:24:04;;;;;;;1999.90;999.90;;;4.80;99.90;;;;;;5119883;28;20173;-81
2021/01/18 02:27:15;;;;;;;1999.90;999.90;;;4.80;99.90;;;;;;5101953;28;20154;-81
2021/01/18 02:30:07;;;;;;;1999.90;999.90;;;4.80;99.90;;;;;;5101579;28;20269;-81
2021/01/18 02:32:54;;;;;;;1999.90;999.90;;;4.80;99.90;;;;;;5088538;28;20198;-81
2021/01/18 02:35:57;;;;;;;1999.90;999.90;;;4.80;99.90;;;;;;5120005;28;20151;-81
2021/01/18 02:38:50;;;;;;;1999.90;999.90;;;4.80;99.90;;;;;;5101393;28;20165;-81
2021/01/18 02:41:27;;;;;;;1999.90;999.90;;;4.70;99.90;;;;;;5119220;28;20146;-82
2021/01/18 02:44:00;;;;;;;1999.90;999.90;;;4.70;99.90;;;;;;5119443;28;20540;-81
2021/01/18 02:46:28;;;;;;;1999.90;999.90;;;4.70;99.90;;;;;;5119920;28;20171;-81
2021/01/18 02:48:55;;;;;;;1999.90;999.90;;;4.70;99.90;;;;;;5119960;28;20176;-81
2021/01/18 02:51:23;;;;;;;1999.90;999.90;;;4.70;99.90;;;;;;5119649;28;20192;-81
2021/01/18 02:54:02;;;;;;;1999.90;999.90;;;4.70;99.90;;;;;;5119109;28;20182;-81
2021/01/18 02:56:35;;;;;;;1999.90;999.90;;;4.80;99.90;;;;;;5119175;28;20159;-81
2021/01/18 02:59:03;;;;;;;1999.90;999.90;;;4.80;99.90;;;;;;5119837;28;20203;-81
2021/01/18 03:01:54;;;;;;;1999.90;999.90;;;4.70;99.90;;;;;;5119206;28;20170;-81
2021/01/18 03:04:46;;;;;;;1999.90;999.90;;;4.70;99.90;;;;;;5118607;28;20154;-81
2021/01/18 03:07:53;;;;;;;1999.90;999.90;;;4.70;99.90;;;;;;5118970;28;20683;-81
2021/01/18 03:10:30;;;;;;;1999.90;999.90;;;4.70;99.90;;;;;;5119984;28;20188;-81
2021/01/18 03:13:18;;;;;;;1999.90;999.90;;;4.60;99.90;;;;;;5118755;28;20178;-81
2021/01/18 03:15:47;;;;;;;1999.90;999.90;;;4.50;99.90;;;;;;5119022;28;20230;-81
2021/01/18 03:18:22;;;;;;;1999.90;999.90;;;4.50;99.90;;;;;;5118507;28;20181;-81
2021/01/18 03:20:50;;;;;;;1999.90;999.90;;;4.40;99.90;;;;;;5119337;28;20188;-81
2021/01/18 03:23:18;;;;;;;1999.90;999.90;;;4.30;99.90;;;;;;5118787;28;20238;-81
2021/01/18 03:25:48;;;;;;;1999.90;999.90;;;4.30;99.90;;;;;;5100390;28;20166;-81
2021/01/18 03:28:14;;;;;;;1999.90;999.90;;;4.40;99.90;;;;;;5119136;28;20171;-81
2021/01/18 03:30:40;;;;;;;1999.90;999.90;;;4.40;99.90;;;;;;5118483;28;20196;-81
2021/01/18 03:33:05;;;;;;;1999.90;999.90;;;4.50;99.90;;;;;;5100071;28;20440;-81
2021/01/18 03:35:31;;;;;;;1999.90;999.90;;;4.50;99.90;;;;;;5100008;28;20404;-81
2021/01/18 03:38:01;;;;;;;1999.90;999.90;;;4.50;99.90;;;;;;5118655;28;20169;-81
2021/01/18 03:40:28;;;;;;;1999.90;999.90;;;4.50;99.90;;;;;;5118837;28;20162;-81
2021/01/18 03:42:56;;;;;;;1999.90;999.90;;;4.50;99.90;;;;;;5100262;28;20171;-81
2021/01/18 03:45:21;;;;;;;1999.90;999.90;;;4.40;99.90;;;;;;5118357;28;20158;-81
2021/01/18 03:47:47;;;;;;;1999.90;999.90;;;4.40;99.90;;;;;;5118502;28;20177;-81
2021/01/18 03:50:13;;;;;;;1999.90;999.90;;;4.40;99.90;;;;;;5118714;28;20169;-81
2021/01/18 03:52:39;;;;;;;1999.90;999.90;;;4.40;99.90;;;;;;5118495;28;20179;-81
2021/01/18 03:55:05;;;;;;;1999.90;999.90;;;4.40;99.90;;;;;;5118757;28;20173;-81
2021/01/18 03:57:31;;;;;;;1999.90;999.90;;;4.40;99.90;;;;;;5099556;28;20914;-81
2021/01/18 04:00:02;;;;;;;1999.90;999.90;;;4.40;99.90;;;;;;5118406;28;20166;-81
2021/01/18 04:02:27;;;;;;;1999.90;999.90;;;4.50;99.90;;;;;;5118407;28;20166;-81
2021/01/18 04:04:53;;;;;;;1999.90;999.90;;;4.50;99.90;;;;;;5118344;28;20166;-81
2021/01/18 04:07:22;;;;;;;1999.90;999.90;;;4.60;99.90;;;;;;5118541;28;20162;-81
2021/01/18 04:09:47;;;;;;;1999.90;999.90;;;4.60;99.90;;;;;;5100492;28;20170;-81
2021/01/18 04:12:16;;;;;;;1999.90;999.90;;;4.60;99.90;;;;;;5118371;28;20215;-81
2021/01/18 04:14:41;;;;;;;1999.90;999.90;;;4.60;99.90;;;;;;5099673;28;20587;-81
2021/01/18 04:17:10;;;;;;;1999.90;999.90;;;4.60;99.90;;;;;;5099692;28;20166;-81
2021/01/18 04:19:36;;;;;;;1999.90;999.90;;;4.60;99.90;;;;;;5100129;28;20408;-81
2021/01/18 04:22:05;;;;;;;1999.90;999.90;;;4.60;99.90;;;;;;5118406;28;20173;-81
2021/01/18 04:24:32;;;;;;;1999.90;999.90;;;4.50;99.90;;;;;;5118715;28;20162;-81
2021/01/18 04:27:00;;;;;;;1999.90;999.90;;;4.50;99.90;;;;;;5117847;28;20170;-81
2021/01/18 04:29:27;;;;;;;1999.90;999.90;;;4.50;99.90;;;;;;5118229;28;20209;-81
2021/01/18 04:31:53;;;;;;;1999.90;999.90;;;4.50;99.90;;;;;;5099995;28;20163;-81
2021/01/18 04:34:25;;;;;;;1999.90;999.90;;;4.50;99.90;;;;;;5118211;28;20190;-81
2021/01/18 04:36:53;;;;;;;1999.90;999.90;;;4.50;99.90;;;;;;5100254;28;20169;-82
2021/01/18 04:39:22;;;;;;;1999.90;999.90;;;4.50;99.90;;;;;;5100946;28;20189;-81
2021/01/18 04:41:48;;;;;;;1999.90;999.90;;;4.50;99.90;;;;;;5103869;28;20566;-81
2021/01/18 04:44:18;;;;;;;1999.90;999.90;;;4.50;99.90;;;;;;5103697;28;20215;-81
2021/01/18 04:46:46;;;;;;;1999.90;999.90;;;4.50;99.90;;;;;;5103393;28;20163;-82
2021/01/18 04:49:14;;;;;;;1999.90;999.90;;;4.50;99.90;;;;;;5122194;28;20170;-81
2021/01/18 04:51:54;;;;;;;1999.90;999.90;;;4.40;99.90;;;;;;5121675;28;20194;-81
2021/01/18 04:54:27;;;;;;;1999.90;999.90;;;4.40;99.90;;;;;;5121473;28;20186;-82
2021/01/18 04:57:02;;;;;;;1999.90;999.90;;;4.50;99.90;;;;;;5121172;28;20158;-82
2021/01/18 04:59:45;;;;;;;1999.90;999.90;;;4.50;99.90;;;;;;5122049;28;20148;-81
2021/01/18 05:02:25;;;;;;;1999.90;999.90;;;4.50;99.90;;;;;;5121921;28;20226;-81
2021/01/18 05:05:08;;;;;;;1999.90;999.90;;;4.50;99.90;;;;;;5122181;28;20150;-81
2021/01/18 05:08:00;;;;;;;1999.90;999.90;;;4.50;99.90;;;;;;5121869;28;20151;-81
2021/01/18 05:10:27;;;;;;;1999.90;999.90;;;4.60;99.90;;;;;;5065454;28;20210;-81
2021/01/18 05:13:07;;;;;;;1999.90;999.90;;;4.60;99.90;;;;;;5103086;28;20189;-81
2021/01/18 05:15:36;;;;;;;1999.90;999.90;;;4.60;99.90;;;;;;5121621;28;20142;-81
2021/01/18 05:18:06;;;;;;;1999.90;999.90;;;4.60;99.90;;;;;;5121215;28;20622;-82
2021/01/18 05:20:38;;;;;;;1999.90;999.90;;;4.60;99.90;;;;;;5121541;28;20173;-81
2021/01/18 05:23:12;;;;;;;1999.90;999.90;;;4.50;99.90;;;;;;5121230;28;20142;-82
2021/01/18 05:25:44;;;;;;;1999.90;999.90;;;4.50;99.90;;;;;;5103023;28;20253;-81
2021/01/18 05:28:12;;;;;;;1999.90;999.90;;;4.50;99.90;;;;;;5120677;28;20170;-82
2021/01/18 05:30:46;;;;;;;1999.90;999.90;;;4.50;99.90;;;;;;5120994;28;20170;-81
2021/01/18 05:33:16;;;;;;;1999.90;999.90;;;4.50;99.90;;;;;;5121292;28;20206;-81
2021/01/18 05:35:49;;;;;;;1999.90;999.90;;;4.60;99.90;;;;;;5121248;28;20163;-82
2021/01/18 05:38:16;;;;;;;1999.90;999.90;;;4.60;99.90;;;;;;5121051;28;20166;-81
2021/01/18 05:40:51;;;;;;;1999.90;999.90;;;4.60;99.90;;;;;;5102360;28;20192;-82
2021/01/18 05:43:31;;;;;;;1999.90;999.90;;;4.70;99.90;;;;;;5102620;28;20264;-82
2021/01/18 05:46:07;;;;;;;1999.90;999.90;;;4.60;99.90;;;;;;5120750;28;20573;-82
2021/01/18 05:48:33;;;;;;;1999.90;999.90;;;4.60;99.90;;;;;;5120800;28;20613;-82
2021/01/18 05:51:05;;;;;;;1999.90;999.90;;;4.60;99.90;;;;;;5102052;28;20178;-81
2021/01/18 05:53:39;;;;;;;1999.90;999.90;;;4.70;99.90;;;;;;5120722;28;20279;-81
2021/01/18 05:56:22;;;;;;;1999.90;999.90;;;4.60;99.90;;;;;;5102504;28;20640;-81
2021/01/18 05:58:48;;;;;;;1999.90;999.90;;;4.70;99.90;;;;;;5120954;28;20154;-81
2021/01/18 06:01:33;;;;;;;1999.90;999.90;;;4.70;99.90;;;;;;5184740;22;20226;-83
2021/01/18 06:04:09;;;;;;;1999.90;999.90;;;4.70;99.90;;;;;;5100752;28;20174;-82
2021/01/18 06:06:36;;;;;;;1999.90;999.90;;;4.70;99.90;;;;;;5100813;28;20151;-83
2021/01/18 06:09:02;;;;;;;1999.90;999.90;;;4.70;99.90;;;;;;5082176;28;20173;-83
2021/01/18 06:11:28;;;;;;;1999.90;999.90;;;4.70;99.90;;;;;;5082268;28;20191;-83
2021/01/18 06:14:03;;;;;;;1999.90;999.90;;;4.70;99.90;;;;;;5100235;28;20187;-83
2021/01/18 06:16:30;;;;;;;1999.90;999.90;;;4.60;99.90;;;;;;5100336;28;20213;-83
2021/01/18 06:19:05;;;;;;;1999.90;999.90;;;4.60;99.90;;;;;;5081571;28;20171;-83
2021/01/18 06:21:35;;;;;;;1999.90;999.90;;;4.60;99.90;;;;;;5100078;28;20163;-83
2021/01/18 06:24:20;;;;;;;1999.90;999.90;;;4.60;99.90;;;;;;5100292;28;20162;-83
2021/01/18 06:26:46;;;;;;;1999.90;999.90;;;4.60;99.90;;;;;;5099967;28;20159;-82
2021/01/18 06:29:42;;;;;;;1999.90;999.90;;;4.60;99.90;;;;;;5100119;28;20167;-82
2021/01/18 06:32:09;;;;;;;1999.90;999.90;;;4.70;99.90;;;;;;5099348;28;20576;-82
2021/01/18 06:34:36;;;;;;;1999.90;999.90;;;4.60;99.90;;;;;;5100161;28;20158;-82
2021/01/18 06:37:02;;;;;;;1999.90;999.90;;;4.70;99.90;;;;;;5082020;28;20167;-83
2021/01/18 06:39:29;;;;;;;1999.90;999.90;;;4.70;99.90;;;;;;5099568;28;20167;-82
2021/01/18 06:42:00;;;;;;;1999.90;999.90;;;4.70;99.90;;;;;;5099815;28;21027;-82
2021/01/18 06:44:35;;;;;;;1999.90;999.90;;;4.70;99.90;;;;;;5100002;28;20155;-82
2021/01/18 06:47:21;;;;;;;1999.90;999.90;;;4.70;99.90;;;;;;5081436;28;20171;-83
2021/01/18 06:49:48;;;;;;;1999.90;999.90;;;4.70;99.90;;;;;;5099767;28;20518;-82
2021/01/18 06:52:21;;;;;;;1999.90;999.90;;;4.70;99.90;;;;;;5081067;28;20225;-82
2021/01/18 06:54:55;;;;;;;1999.90;999.90;;;4.70;99.90;;;;;;5099686;28;20186;-82
2021/01/18 06:57:45;;;;;;;1999.90;999.90;;;4.70;99.90;;;;;;5098599;28;20513;-82
2021/01/18 07:00:18;;;;;;;1999.90;999.90;;;4.70;99.90;;;;;;5099038;28;20152;-83
2021/01/18 07:02:59;;;;;;;1999.90;999.90;;;4.70;99.90;;;;;;5098817;28;20164;-82
2021/01/18 07:05:44;;;;;;;1999.90;999.90;;;4.70;99.90;;;;;;5099074;28;20568;-82
2021/01/18 07:08:18;;;;;;;1999.90;999.90;;;4.60;99.90;;;;;;5099202;28;20186;-82
2021/01/18 07:10:49;;;;;;;1999.90;999.90;;;4.50;99.90;;;;;;5099057;28;20159;-82
2021/01/18 07:13:18;;;;;;;1999.90;999.90;;;4.60;99.90;;;;;;5080225;28;20190;-82
2021/01/18 07:15:44;;;;;;;1999.90;999.90;;;4.60;99.90;;;;;;5098947;28;20159;-82
2021/01/18 07:18:12;;;;;;;1999.90;999.90;;;4.60;99.90;;;;;;5080625;28;20656;-82
2021/01/18 07:20:51;;;;;;;1999.90;999.90;;;4.60;99.90;;;;;;5098435;28;20245;-82
2021/01/18 07:23:25;;;;;;;1999.90;999.90;;;4.70;99.90;;;;;;5100241;28;20155;-82
2021/01/18 07:26:16;;;;;;;1999.90;999.90;;;4.70;99.90;;;;;;5098350;28;20201;-82
2021/01/18 07:28:49;;;;;;;1999.90;999.90;;;4.70;99.90;;;;;;5079183;28;20300;-82
2021/01/18 07:31:18;;;;;;;1999.90;999.90;;;4.70;99.90;;;;;;5099420;28;20220;-82
2021/01/18 07:34:05;;;;;;;;;;;;;;;;;;;;;
2021/01/18 07:36:32;;;;;;;1999.90;999.90;;;4.80;99.90;;;;;;5093702;28;20270;-83
2021/01/18 07:39:21;;;;;;;1999.90;999.90;;;4.80;99.90;;;;;;5098242;28;20549;-82
2021/01/18 07:41:46;;;;;;;1999.90;999.90;;;4.70;99.90;;;;;;5099405;28;20147;-82
2021/01/18 07:44:35;;;;;;;1999.90;999.90;;;4.70;99.90;;;;;;5099208;28;20551;-82
2021/01/18 07:47:03;;;;;;;1999.90;999.90;;;4.70;99.90;;;;;;5098773;28;20159;-82
2021/01/18 07:49:29;;;;;;;1999.90;999.90;;;4.80;99.90;;;;;;5099069;28;20156;-82
2021/01/18 07:52:23;;;;;;;1999.90;999.90;;;4.80;99.90;;;;;;5099346;28;20214;-82
2021/01/18 07:54:49;;;;;;;1999.90;999.90;;;4.70;99.90;;;;;;5098388;28;20174;-82
2021/01/18 07:57:50;;;;;;;1999.90;999.90;;;4.70;99.90;;;;;;5098993;28;20235;-82
2021/01/18 08:00:19;;;;;;;1999.90;999.90;;;4.80;99.90;;;;;;5098320;28;20425;-82
2021/01/18 08:03:21;;;;;;;1999.90;999.90;;;4.90;99.90;;;;;;5098461;28;20192;-82
2021/01/18 08:05:48;;;;;;;1999.90;999.90;;;4.90;99.90;;;;;;5070280;28;20171;-82
2021/01/18 08:08:29;;;;;;;1999.90;999.90;;;4.90;99.90;;;;;;5080526;28;20242;-82
2021/01/18 08:11:11;;;;;;;1999.90;999.90;;;4.90;99.90;;;;;;5098773;28;20188;-82
2021/01/18 08:13:42;;;;;;;1999.90;999.90;;;4.90;99.90;;;;;;5079541;28;20198;-82
2021/01/18 08:16:16;;;;;;;1999.90;999.90;;;4.90;99.90;;;;;;5102014;28;20148;-82
2021/01/18 08:18:54;;;;;;;1999.90;999.90;;;4.90;99.90;;;;;;5102104;28;20148;-83
2021/01/18 08:21:35;;;;;;;1999.90;999.90;;;4.90;99.90;;;;;;5082951;28;20297;-83
2021/01/18 08:24:01;;;;;;;1999.90;999.90;;;4.90;99.90;;;;;;5084221;28;20174;-82
2021/01/18 08:26:46;;;;;;;1999.90;999.90;;;4.90;99.90;;;;;;5102683;28;20634;-83
2021/01/18 08:29:37;;;;;;;1999.90;999.90;;;4.90;99.90;;;;;;5083477;28;20193;-83
2021/01/18 08:32:24;;;;;;;1999.90;999.90;;;4.90;99.90;;;;;;5083354;28;20637;-82
2021/01/18 08:35:08;;;;;;;1999.90;999.90;;;5.00;99.90;;;;;;5082093;28;20665;-83
2021/01/18 08:37:36;;;;;;;1999.90;999.90;;;5.00;99.90;;;;;;5084142;28;20220;-83
2021/01/18 08:40:12;;;;;;;1999.90;999.90;;;5.00;99.90;;;;;;5102375;28;20170;-83
2021/01/18 08:42:40;;;;;;;1999.90;999.90;;;5.10;99.90;;;;;;5101725;28;20228;-83
2021/01/18 08:45:24;;;;;;;1999.90;999.90;;;5.10;99.90;;;;;;5102425;28;20189;-83
2021/01/18 08:48:02;;;;;;;1999.90;999.90;;;5.30;99.90;;;;;;5102648;28;20189;-82
2021/01/18 08:50:34;;;;;;;1999.90;999.90;;;5.20;99.90;;;;;;5083252;28;20677;-82
2021/01/18 08:53:02;;;;;;;1999.90;999.90;;;5.30;99.90;;;;;;5100989;28;20221;-83
2021/01/18 08:55:31;;;;;;;1999.90;999.90;;;5.30;99.90;;;;;;5082254;28;20530;-82
2021/01/18 08:58:01;;;;;;;1999.90;999.90;;;5.40;99.90;;;;;;5101231;28;20626;-82
2021/01/18 09:00:47;;;;;;;1999.90;999.90;;;5.50;99.90;;;;;;5083458;28;20635;-83
2021/01/18 09:03:21;;;;;;;1999.90;999.90;;;5.50;99.90;;;;;;5100017;28;20187;-82
2021/01/18 09:05:55;;;;;;;1999.90;999.90;;;5.60;99.90;;;;;;5096898;28;20158;-82
2021/01/18 09:08:22;;;;;;;1999.90;999.90;;;5.70;99.90;;;;;;5097316;28;20610;-82
2021/01/18 09:11:02;;;;;;;1999.90;999.90;;;5.70;99.90;;;;;;5096691;28;20175;-82
2021/01/18 09:13:30;;;;;;;1999.90;999.90;;;5.70;99.90;;;;;;5079349;28;20194;-82
2021/01/18 09:15:58;;;;;;;1999.90;999.90;;;5.70;99.90;;;;;;5078503;28;20607;-82
2021/01/18 09:18:25;;;;;;;1999.90;999.90;;;5.70;99.90;;;;;;5097660;28;20160;-82
2021/01/18 09:20:52;;;;;;;1999.90;999.90;;;5.80;99.90;;;;;;5096555;28;20241;-82
2021/01/18 09:23:18;;;;;;;1999.90;999.90;;;5.80;99.90;;;;;;5096629;28;20583;-82
2021/01/18 09:25:44;;;;;;;1999.90;999.90;;;5.80;99.90;;;;;;5096308;28;20191;-82
2021/01/18 09:28:16;;;;;;;1999.90;999.90;;;5.90;99.90;;;;;;5097111;28;20488;-82
2021/01/18 09:30:43;;;;;;;1999.90;999.90;;;5.90;99.90;;;;;;5078570;28;20174;-82
2021/01/18 09:33:11;;;;;;;1999.90;999.90;;;5.90;99.90;;;;;;5097058;28;20194;-82
2021/01/18 09:35:39;;;;;;;1999.90;999.90;;;5.90;99.90;;;;;;5079063;28;20170;-83
2021/01/18 09:38:06;;;;;;;1999.90;999.90;;;6.00;99.90;;;;;;5096976;28;20163;-82
2021/01/18 09:40:34;;;;;;;1999.90;999.90;;;6.10;99.90;;;;;;5096868;28;20542;-83
2021/01/18 09:43:00;;;;;;;1999.90;999.90;;;6.10;99.90;;;;;;5096922;28;20167;-83
2021/01/18 09:45:26;;;;;;;1999.90;999.90;;;6.10;99.90;;;;;;5078237;28;20296;-82
2021/01/18 09:47:54;;;;;;;1999.90;999.90;;;6.10;99.90;;;;;;5077844;28;20178;-82
2021/01/18 09:50:22;;;;;;;1999.90;999.90;;;6.10;99.90;;;;;;5077895;28;20167;-83
2021/01/18 09:52:49;;;;;;;1999.90;999.90;;;6.10;99.90;;;;;;5096688;28;20558;-82
2021/01/18 09:55:25;;;;;;;1999.90;999.90;;;6.20;99.90;;;;;;5080508;28;20171;-83
2021/01/18 09:58:17;;;;;;;1999.90;999.90;;;6.20;99.90;;;;;;5081436;28;20254;-83
2021/01/18 10:00:49;;;;;;;1999.90;999.90;;;6.30;99.90;;;;;;5100082;28;20179;-83
2021/01/18 10:03:27;;;;;;;1999.90;999.90;;;6.20;99.90;;;;;;5081733;28;20545;-83
2021/01/18 10:06:09;;;;;;;1999.90;999.90;;;6.30;99.90;;;;;;5100200;28;20170;-83
2021/01/18 10:08:38;;;;;;;1999.90;999.90;;;6.40;99.90;;;;;;5100226;28;20171;-83
2021/01/18 10:11:05;;;;;;;1999.90;999.90;;;6.40;99.90;;;;;;5099913;28;20638;-83
2021/01/18 10:13:30;;;;;;;1999.90;999.90;;;6.40;99.90;;;;;;5100189;28;20195;-83
2021/01/18 10:16:06;;;;;;;1999.90;999.90;;;6.40;99.90;;;;;;5082768;28;20167;-83
2021/01/18 10:18:40;;;;;;;1999.90;999.90;;;6.40;99.90;;;;;;5083194;28;20175;-83
2021/01/18 10:21:08;;;;;;;1999.90;999.90;;;6.40;99.90;;;;;;5082353;28;20170;-83
2021/01/18 10:23:36;;;;;;;1999.90;999.90;;;6.50;99.90;;;;;;5100649;28;20195;-83
2021/01/18 10:26:21;;;;;;;1999.90;999.90;;;6.50;99.90;;;;;;5100618;28;20182;-83
2021/01/18 10:28:58;;;;;;;1999.90;999.90;;;6.50;99.90;;;;;;5081217;28;20179;-82
2021/01/18 10:31:27;;;;;;;1999.90;999.90;;;6.50;99.90;;;;;;5096834;28;20144;-83
2021/01/18 10:34:13;;;;;;;1999.90;999.90;;;6.50;99.90;;;;;;5078428;28;20191;-82
2021/01/18 10:36:44;;;;;;;1999.90;999.90;;;6.50;99.90;;;;;;5096606;28;20159;-83
2021/01/18 10:39:31;;;;;;;1999.90;999.90;;;6.50;99.90;;;;;;5079352;28;20238;-84
2021/01/18 10:42:03;;;;;;;1999.90;999.90;;;6.60;99.90;;;;;;5079551;28;20159;-83
2021/01/18 10:44:30;;;;;;;1999.90;999.90;;;6.60;99.90;;;;;;5078297;28;20170;-83
2021/01/18 10:46:56;;;;;;;1999.90;999.90;;;6.60;99.90;;;;;;5096602;28;20658;-83
2021/01/18 10:49:30;;;;;;;1999.90;999.90;;;6.50;99.90;;;;;;5096029;28;20189;-82
2021/01/18 10:51:59;;;;;;;1999.90;999.90;;;6.50;99.90;;;;;;5079308;28;20507;-84
2021/01/18 10:54:25;;;;;;;1999.90;999.90;;;6.50;99.90;;;;;;5098544;28;20191;-83
2021/01/18 10:56:51;;;;;;;1999.90;999.90;;;6.60;99.90;;;;;;5097860;28;20162;-83
2021/01/18 10:59:17;;;;;;;1999.90;999.90;;;6.70;99.90;;;;;;5097800;28;20191;-83
2021/01/18 11:02:06;;;;;;;1999.90;999.90;;;6.70;99.90;;;;;;5097100;28;20205;-82
2021/01/18 11:04:36;;;;;;;1999.90;999.90;;;6.80;99.90;;;;;;5095685;28;20151;-83
2021/01/18 11:07:08;;;;;;;1999.90;999.90;;;6.80;99.90;;;;;;5077944;28;20228;-83
2021/01/18 11:09:34;;;;;;;1999.90;999.90;;;6.70;99.90;;;;;;5096267;28;20250;-83
2021/01/18 11:12:01;;;;;;;1999.90;999.90;;;6.70;99.90;;;;;;5098948;28;20248;-84
2021/01/18 11:14:29;;;;;;;1999.90;999.90;;;6.70;99.90;;;;;;5077460;28;20478;-83
2021/01/18 11:16:59;;;;;;;1999.90;999.90;;;6.70;99.90;;;;;;5078017;28;20191;-82
2021/01/18 11:19:25;;;;;;;1999.90;999.90;;;6.70;99.90;;;;;;5078305;28;20163;-83
2021/01/18 11:21:51;;;;;;;1999.90;999.90;;;6.80;99.90;;;;;;5096512;28;20630;-84
2021/01/18 11:24:17;;;;;;;1999.90;999.90;;;6.80;99.90;;;;;;5080352;28;20175;-84
2021/01/18 11:26:46;;;;;;;1999.90;999.90;;;6.90;99.90;;;;;;5098900;28;20577;-83
2021/01/18 11:29:11;;;;;;;1999.90;999.90;;;6.90;99.90;;;;;;5097578;28;20650;-83
2021/01/18 11:31:37;;;;;;;1999.90;999.90;;;6.80;99.90;;;;;;5064117;28;20178;-83
2021/01/18 11:34:03;;;;;;;1999.90;999.90;;;6.80;99.90;;;;;;5097963;28;20315;-83
2021/01/18 11:36:28;;;;;;;1999.90;999.90;;;6.80;99.90;;;;;;5080104;28;20289;-84
2021/01/18 11:38:54;;;;;;;1999.90;999.90;;;6.90;99.90;;;;;;5079147;28;20530;-83
2021/01/18 11:41:20;;;;;;;1999.90;999.90;;;6.90;99.90;;;;;;5080058;28;20163;-83
2021/01/18 11:43:46;;;;;;;1999.90;999.90;;;6.90;99.90;;;;;;5096810;28;20741;-84
2021/01/18 11:46:16;;;;;;;1999.90;999.90;;;6.90;99.90;;;;;;5080938;28;20945;-84
2021/01/18 11:48:42;;;;;;;1999.90;999.90;;;6.90;99.90;;;;;;5080845;28;20167;-84
2021/01/18 11:51:08;;;;;;;1999.90;999.90;;;6.90;99.90;;;;;;5080830;28;20170;-83
2021/01/18 11:53:34;;;;;;;1999.90;999.90;;;7.00;99.90;;;;;;5098488;28;20178;-84
2021/01/18 11:55:59;;;;;;;1999.90;999.90;;;7.00;99.90;;;;;;5099394;28;20159;-83
2021/01/18 11:58:25;;;;;;;1999.90;999.90;;;7.10;99.90;;;;;;5080614;28;20159;-83
2021/01/18 12:00:51;;;;;;;1999.90;999.90;;;7.10;99.90;;;;;;5077376;28;20659;-83
2021/01/18 12:03:20;;;;;;;1999.90;999.90;;;7.00;99.90;;;;;;5094994;28;20163;-83
2021/01/18 12:05:46;;;;;;;1999.90;999.90;;;7.10;99.90;;;;;;5077137;28;20182;-83
2021/01/18 12:08:11;;;;;;;1999.90;999.90;;;7.20;99.90;;;;;;5077334;28;20175;-84
2021/01/18 12:10:44;;;;;;;1999.90;999.90;;;7.20;99.90;;;;;;5095891;28;20405;-83
2021/01/18 12:13:15;;;;;;;1999.90;999.90;;;7.20;99.90;;;;;;5076536;28;20490;-83
2021/01/18 12:15:44;;;;;;;1999.90;999.90;;;7.20;99.90;;;;;;5095660;28;20544;-83
2021/01/18 12:18:10;;;;;;;1999.90;999.90;;;7.20;99.90;;;;;;5097832;28;20163;-83
2021/01/18 12:20:37;;;;;;;1999.90;999.90;;;7.30;99.90;;;;;;5080626;28;20209;-84
2021/01/18 12:23:09;;;;;;;1999.90;999.90;;;7.50;99.90;;;;;;5193552;22;20516;-82
2021/01/18 12:25:35;;;;;;;1999.90;999.90;;;7.50;99.90;;;;;;5061489;28;20184;-82
2021/01/18 12:28:08;;;;;;;1999.90;999.90;;;7.60;99.90;;;;;;5062607;28;20542;-81
2021/01/18 12:30:34;;;;;;;1999.90;999.90;;;7.70;99.90;;;;;;5060483;28;20160;-82
2021/01/18 12:33:03;;;;;;;1999.90;999.90;;;7.70;99.90;;;;;;5078421;28;20187;-81